createdAt,value
2023-03-14T00:00:13.420Z,69.64
2023-03-14T00:02:40.136Z,69.95
2023-03-14T00:05:07.241Z,71.36
2023-03-14T00:07:38.196Z,67.98
2023-03-14T00:10:05.897Z,70.71
2023-03-14T00:12:32.884Z,67.72
2023-03-14T00:14:59.600Z,68.81
2023-03-14T00:17:26.210Z,71.15
2023-03-14T00:19:53.267Z,73.05
2023-03-14T00:22:19.921Z,73.34
2023-03-14T00:24:46.551Z,73.37
2023-03-14T00:27:13.184Z,74.07
2023-03-14T00:29:39.827Z,75.02
2023-03-14T00:32:06.442Z,73.72
2023-03-14T00:34:33.649Z,74.05
2023-03-14T00:37:00.282Z,74.52
2023-03-14T00:39:26.927Z,74.76
2023-03-14T00:41:53.559Z,74.17
2023-03-14T00:44:20.186Z,75.96
2023-03-14T00:46:46.862Z,78.47
2023-03-14T00:49:13.546Z,78.52
2023-03-14T00:51:40.203Z,79.22
2023-03-14T00:54:06.847Z,79.89
2023-03-14T00:56:33.481Z,80.34
2023-03-14T00:59:00.329Z,80.51
2023-03-14T01:01:27.027Z,79.49
2023-03-14T01:03:54.327Z,79.02
2023-03-14T01:06:25.747Z,77.94
2023-03-14T01:08:52.471Z,77.14
2023-03-14T01:11:24.022Z,77.00
2023-03-14T01:13:50.673Z,75.48
2023-03-14T01:16:17.417Z,75.82
2023-03-14T01:18:44.420Z,74.91
2023-03-14T01:21:18.557Z,75.32
2023-03-14T01:23:45.220Z,77.03
2023-03-14T01:26:12.670Z,76.67
2023-03-14T01:28:39.405Z,77.10
2023-03-14T01:31:07.446Z,76.37
2023-03-14T01:33:34.119Z,76.38
2023-03-14T01:36:00.846Z,76.57
2023-03-14T01:38:30.258Z,79.15
2023-03-14T01:40:56.947Z,77.54
2023-03-14T01:43:23.554Z,74.64
2023-03-14T01:45:59.320Z,73.58
2023-03-14T01:48:26.895Z,70.13
2023-03-14T01:50:53.644Z,73.72
2023-03-14T01:53:20.295Z,73.54
2023-03-14T01:55:46.920Z,74.33
2023-03-14T01:58:13.537Z,74.42
2023-03-14T02:00:40.237Z,76.16
2023-03-14T02:03:10.860Z,76.44
2023-03-14T02:05:40.030Z,76.95
2023-03-14T02:08:08.109Z,77.85
2023-03-14T02:10:42.907Z,77.61
2023-03-14T02:13:09.598Z,76.67
2023-03-14T02:15:36.286Z,76.75
2023-03-14T02:18:03.402Z,78.11
2023-03-14T02:20:51.782Z,77.59
2023-03-14T02:23:36.908Z,77.70
2023-03-14T02:26:10.041Z,79.15
2023-03-14T02:28:36.716Z,76.41
2023-03-14T02:31:03.374Z,74.94
2023-03-14T02:33:30.000Z,74.91
2023-03-14T02:35:58.739Z,76.22
2023-03-14T02:38:30.437Z,77.44
2023-03-14T02:40:57.088Z,80.09
2023-03-14T02:43:23.855Z,81.96
2023-03-14T02:45:51.180Z,81.40
2023-03-14T02:48:23.258Z,80.41
2023-03-14T02:50:50.177Z,79.98
2023-03-14T02:53:22.054Z,77.55
2023-03-14T02:55:48.684Z,75.74
2023-03-14T02:58:15.418Z,75.85
2023-03-14T03:00:42.081Z,70.64
2023-03-14T03:03:08.757Z,69.26
2023-03-14T03:05:35.429Z,69.68
2023-03-14T03:08:02.127Z,71.80
2023-03-14T03:10:29.011Z,71.86
2023-03-14T03:12:55.630Z,72.31
2023-03-14T03:15:22.277Z,75.05
2023-03-14T03:17:48.932Z,75.81
2023-03-14T03:20:15.624Z,73.84
2023-03-14T03:22:42.269Z,72.97
2023-03-14T03:25:09.337Z,73.63
2023-03-14T03:27:36.477Z,71.04
2023-03-14T03:30:04.405Z,71.68
2023-03-14T03:32:31.194Z,73.08
2023-03-14T03:34:57.844Z,74.09
2023-03-14T03:37:24.493Z,73.93
2023-03-14T03:39:51.863Z,74.14
2023-03-14T03:42:19.009Z,73.76
2023-03-14T03:44:46.305Z,73.88
2023-03-14T03:47:12.930Z,73.29
2023-03-14T03:49:39.582Z,72.27
2023-03-14T03:52:06.231Z,71.50
2023-03-14T03:54:32.886Z,71.84
2023-03-14T03:56:59.557Z,70.78
2023-03-14T03:59:26.187Z,70.97
2023-03-14T04:01:52.837Z,71.42
2023-03-14T04:04:19.676Z,68.72
2023-03-14T04:06:46.471Z,68.65
2023-03-14T04:09:13.142Z,70.32
2023-03-14T04:11:39.767Z,69.31
2023-03-14T04:14:06.419Z,68.70
2023-03-14T04:16:33.072Z,69.21
2023-03-14T04:18:59.728Z,68.87
2023-03-14T04:21:26.399Z,69.12
2023-03-14T04:23:53.042Z,69.96
2023-03-14T04:26:19.687Z,72.15
2023-03-14T04:28:46.343Z,72.84
2023-03-14T04:31:14.424Z,73.22
2023-03-14T04:33:41.107Z,72.93
2023-03-14T04:36:08.485Z,72.54
2023-03-14T04:38:35.178Z,72.27
2023-03-14T04:41:01.824Z,71.71
2023-03-14T04:43:28.524Z,69.76
2023-03-14T04:45:55.874Z,70.15
2023-03-14T04:48:22.520Z,69.33
2023-03-14T04:50:49.213Z,69.89
2023-03-14T04:53:16.076Z,69.91
2023-03-14T04:55:42.812Z,70.44
2023-03-14T04:58:09.534Z,68.63
2023-03-14T05:00:38.133Z,68.21
2023-03-14T05:03:05.518Z,68.68
2023-03-14T05:05:32.184Z,65.69
2023-03-14T05:07:58.845Z,66.50
2023-03-14T05:10:25.485Z,67.51
2023-03-14T05:12:52.146Z,68.54
2023-03-14T05:15:18.794Z,67.28
2023-03-14T05:17:45.443Z,67.82
2023-03-14T05:20:12.189Z,68.11
2023-03-14T05:22:38.862Z,69.11
2023-03-14T05:25:05.786Z,67.43
2023-03-14T05:27:32.491Z,68.98
2023-03-14T05:29:59.908Z,69.01
2023-03-14T05:32:27.691Z,68.72
2023-03-14T05:34:55.223Z,69.66
2023-03-14T05:37:21.843Z,68.96
2023-03-14T05:39:48.500Z,68.85
2023-03-14T05:42:15.176Z,68.10
2023-03-14T05:44:42.591Z,68.03
2023-03-14T05:47:10.194Z,67.61
2023-03-14T05:49:38.776Z,68.72
2023-03-14T05:52:08.679Z,67.90
2023-03-14T05:54:36.033Z,68.90
2023-03-14T05:57:03.677Z,67.76
2023-03-14T05:59:31.214Z,67.23
2023-03-14T06:01:59.049Z,66.61
2023-03-14T06:04:26.398Z,68.22
2023-03-14T06:06:53.057Z,68.02
2023-03-14T06:09:19.685Z,69.43
2023-03-14T06:11:46.468Z,69.24
2023-03-14T06:14:13.106Z,68.62
2023-03-14T06:16:39.777Z,67.72
2023-03-14T06:19:06.457Z,69.46
2023-03-14T06:21:33.087Z,67.66
2023-03-14T06:23:59.770Z,67.33
2023-03-14T06:26:26.387Z,69.40
2023-03-14T06:28:53.187Z,69.39
2023-03-14T06:31:19.851Z,69.06
2023-03-14T06:33:46.606Z,68.66
2023-03-14T06:36:13.267Z,68.70
2023-03-14T06:38:39.965Z,67.25
2023-03-14T06:41:07.382Z,65.48
2023-03-14T06:43:34.688Z,65.29
2023-03-14T06:46:01.397Z,66.67
2023-03-14T06:48:28.073Z,67.67
2023-03-14T06:50:54.719Z,67.40
2023-03-14T06:53:21.338Z,67.93
2023-03-14T06:55:47.967Z,67.95
2023-03-14T06:58:14.615Z,69.79
2023-03-14T07:00:41.247Z,69.19
2023-03-14T07:03:07.883Z,69.48
2023-03-14T07:05:34.522Z,67.90
2023-03-14T07:08:01.158Z,67.03
2023-03-14T07:10:27.845Z,67.50
2023-03-14T07:12:54.475Z,66.60
2023-03-14T07:15:21.114Z,69.07
2023-03-14T07:17:47.789Z,68.59
2023-03-14T07:20:14.404Z,69.19
2023-03-14T07:22:41.038Z,69.63
2023-03-14T07:25:08.841Z,69.30
2023-03-14T07:27:35.685Z,68.64
2023-03-14T07:30:02.324Z,69.18
2023-03-14T07:32:29.066Z,69.77
2023-03-14T07:34:55.741Z,69.19
2023-03-14T07:37:22.384Z,69.84
2023-03-14T07:39:49.054Z,70.04
2023-03-14T07:42:15.809Z,70.66
2023-03-14T07:44:42.475Z,70.54
2023-03-14T07:47:09.122Z,70.55
2023-03-14T07:49:35.759Z,70.35
2023-03-14T07:52:02.439Z,69.92
2023-03-14T07:54:29.121Z,70.24
2023-03-14T07:56:55.764Z,71.00
2023-03-14T07:59:22.439Z,70.98
2023-03-14T08:01:49.111Z,70.53
2023-03-14T08:04:15.772Z,70.47
2023-03-14T08:06:42.450Z,70.72
2023-03-14T08:09:09.123Z,71.54
2023-03-14T08:11:35.762Z,71.24
2023-03-14T08:14:02.394Z,71.31
2023-03-14T08:16:29.288Z,71.23
2023-03-14T08:18:56.046Z,70.95
2023-03-14T08:21:22.670Z,71.53
2023-03-14T08:23:49.326Z,71.38
2023-03-14T08:26:15.987Z,71.33
2023-03-14T08:28:42.689Z,71.20
2023-03-14T08:31:09.417Z,71.39
2023-03-14T08:33:36.146Z,72.32
2023-03-14T08:36:02.884Z,71.43
2023-03-14T08:38:29.594Z,71.01
2023-03-14T08:40:59.895Z,71.91
2023-03-14T08:43:27.112Z,71.80
2023-03-14T08:45:53.784Z,72.82
2023-03-14T08:48:20.487Z,71.83
2023-03-14T08:50:47.159Z,70.51
2023-03-14T08:53:13.807Z,70.67
2023-03-14T08:55:40.476Z,70.28
2023-03-14T08:58:07.145Z,69.10
2023-03-14T09:00:33.800Z,70.07
2023-03-14T09:03:00.457Z,70.45
2023-03-14T09:05:27.128Z,69.58
2023-03-14T09:07:53.780Z,69.86
2023-03-14T09:10:20.493Z,68.94
2023-03-14T09:12:47.106Z,69.78
2023-03-14T09:15:13.748Z,69.22
2023-03-14T09:17:40.394Z,69.63
2023-03-14T09:20:07.384Z,69.91
2023-03-14T09:22:34.007Z,70.42
2023-03-14T09:25:00.640Z,69.61
2023-03-14T09:27:27.295Z,69.72
2023-03-14T09:29:54.057Z,70.63
2023-03-14T09:32:20.802Z,70.47
2023-03-14T09:34:47.459Z,69.06
2023-03-14T09:37:14.122Z,69.43
2023-03-14T09:39:40.758Z,71.34
2023-03-14T09:42:08.099Z,71.72
2023-03-14T09:44:37.426Z,70.82
2023-03-14T09:47:06.164Z,71.68
2023-03-14T09:49:34.685Z,71.31
2023-03-14T09:52:04.333Z,70.80
2023-03-14T09:54:36.075Z,70.52
2023-03-14T09:57:03.435Z,71.07
2023-03-14T09:59:30.369Z,70.86
2023-03-14T10:02:03.335Z,71.71
2023-03-14T10:04:29.975Z,72.80
2023-03-14T10:06:56.775Z,73.98
2023-03-14T10:09:24.223Z,72.82
2023-03-14T10:11:50.858Z,70.62
2023-03-14T10:14:17.615Z,70.25
2023-03-14T10:16:45.379Z,70.02
2023-03-14T10:19:13.696Z,68.10
2023-03-14T10:21:41.540Z,68.97
2023-03-14T10:24:19.139Z,70.18
2023-03-14T10:26:50.591Z,69.39
2023-03-14T10:29:17.284Z,70.59
2023-03-14T10:31:54.255Z,70.74
2023-03-14T10:34:31.882Z,70.09
2023-03-14T10:37:00.389Z,71.07
2023-03-14T10:39:46.624Z,71.40
2023-03-14T10:42:31.148Z,70.69
2023-03-14T10:44:59.894Z,69.25
2023-03-14T10:47:27.417Z,70.76
2023-03-14T10:49:54.105Z,69.33
2023-03-14T10:52:26.344Z,69.35
2023-03-14T10:54:59.376Z,69.88
2023-03-14T10:57:26.239Z,69.36
2023-03-14T10:59:53.120Z,69.96
2023-03-14T11:02:50.398Z,66.68
2023-03-14T11:05:38.206Z,66.53
2023-03-14T11:08:12.951Z,66.77
2023-03-14T11:10:40.033Z,67.14
2023-03-14T11:13:22.479Z,66.31
2023-03-14T11:16:00.716Z,66.07
2023-03-14T11:18:51.039Z,67.60
2023-03-14T11:21:39.891Z,65.81
2023-03-14T11:24:48.691Z,64.15
2023-03-14T11:27:44.450Z,65.76
2023-03-14T11:30:24.539Z,64.19
2023-03-14T11:33:02.247Z,65.24
2023-03-14T11:35:48.749Z,64.60
2023-03-14T11:38:29.477Z,65.35
2023-03-14T11:40:57.583Z,62.90
2023-03-14T11:43:33.502Z,61.98
2023-03-14T11:46:04.944Z,64.65
2023-03-14T11:48:34.571Z,66.20
2023-03-14T11:51:01.204Z,64.65
2023-03-14T11:53:40.744Z,61.42
2023-03-14T11:56:18.773Z,62.34
2023-03-14T11:58:55.206Z,61.20
2023-03-14T12:01:21.839Z,62.24
2023-03-14T12:04:21.231Z,63.61
2023-03-14T12:06:49.433Z,63.78
2023-03-14T12:09:16.900Z,63.64
2023-03-14T12:12:00.803Z,64.33
2023-03-14T12:14:30.172Z,65.69
2023-03-14T12:16:58.631Z,66.00
2023-03-14T12:19:27.976Z,66.88
2023-03-14T12:22:00.104Z,67.01
2023-03-14T12:24:31.688Z,66.42
2023-03-14T12:27:02.319Z,65.49
2023-03-14T12:29:28.969Z,65.96
2023-03-14T12:32:01.744Z,66.09
2023-03-14T12:34:35.646Z,66.66
2023-03-14T12:37:10.231Z,65.19
2023-03-14T12:39:51.964Z,65.38
2023-03-14T12:42:21.893Z,65.72
2023-03-14T12:44:51.984Z,65.42
2023-03-14T12:47:18.482Z,65.96
2023-03-14T12:49:48.093Z,65.24
2023-03-14T12:52:20.429Z,67.15
2023-03-14T12:54:59.445Z,67.49
2023-03-14T12:57:39.894Z,67.29
2023-03-14T13:00:22.154Z,69.35
2023-03-14T13:02:49.628Z,67.11
2023-03-14T13:05:25.670Z,66.94
2023-03-14T13:07:55.764Z,66.83
2023-03-14T13:10:25.566Z,68.52
2023-03-14T13:12:52.087Z,68.22
2023-03-14T13:15:25.662Z,66.91
2023-03-14T13:17:53.122Z,66.05
2023-03-14T13:20:23.875Z,62.54
2023-03-14T13:22:50.606Z,62.90
2023-03-14T13:25:17.279Z,64.33
2023-03-14T13:27:44.003Z,61.94
2023-03-14T13:30:24.856Z,58.27
2023-03-14T13:32:52.237Z,60.33
2023-03-14T13:35:29.816Z,56.58
2023-03-14T13:38:10.487Z,58.74
2023-03-14T13:40:38.059Z,58.39
2023-03-14T13:43:06.068Z,57.85
2023-03-14T13:45:32.693Z,56.42
2023-03-14T13:47:59.317Z,53.96
2023-03-14T13:50:25.969Z,55.45
2023-03-14T13:52:56.557Z,55.21
2023-03-14T13:55:23.182Z,55.90
2023-03-14T13:57:51.441Z,54.50
2023-03-14T14:00:25.645Z,56.83
2023-03-14T14:02:52.277Z,55.56
2023-03-14T14:05:18.937Z,55.33
2023-03-14T14:07:45.562Z,55.57
2023-03-14T14:10:13.876Z,57.44
2023-03-14T14:12:44.853Z,58.96
2023-03-14T14:15:13.804Z,60.76
2023-03-14T14:17:45.716Z,60.68
2023-03-14T14:20:27.897Z,59.48
2023-03-14T14:22:54.536Z,59.51
2023-03-14T14:25:21.183Z,58.96
2023-03-14T14:27:49.594Z,60.70
2023-03-14T14:30:19.163Z,61.41
2023-03-14T14:32:47.009Z,62.44
2023-03-14T14:35:26.685Z,62.54
2023-03-14T14:37:53.358Z,61.69
2023-03-14T14:40:24.842Z,62.69
2023-03-14T14:42:51.524Z,63.02
2023-03-14T14:45:21.782Z,62.85
2023-03-14T14:47:55.137Z,64.91
2023-03-14T14:50:32.737Z,65.67
2023-03-14T14:53:00.466Z,65.61
2023-03-14T14:55:34.674Z,64.91
2023-03-14T14:58:20.892Z,64.87
2023-03-14T15:01:12.425Z,63.62
2023-03-14T15:03:39.083Z,64.81
2023-03-14T15:06:05.899Z,64.96
2023-03-14T15:08:32.611Z,64.16
2023-03-14T15:10:59.428Z,63.83
2023-03-14T15:13:26.144Z,64.30
2023-03-14T15:15:52.811Z,63.70
2023-03-14T15:18:19.508Z,62.98
2023-03-14T15:20:46.160Z,63.16
2023-03-14T15:23:17.098Z,65.20
2023-03-14T15:25:54.910Z,66.39
2023-03-14T15:28:27.114Z,65.67
2023-03-14T15:30:54.938Z,65.98
2023-03-14T15:33:21.755Z,66.16
2023-03-14T15:35:48.862Z,66.83
2023-03-14T15:38:17.914Z,66.94
2023-03-14T15:40:44.530Z,65.89
2023-03-14T15:43:11.217Z,65.00
2023-03-14T15:45:37.913Z,65.76
2023-03-14T15:48:05.180Z,65.07
2023-03-14T15:50:31.823Z,66.92
2023-03-14T15:52:58.465Z,65.46
2023-03-14T15:55:25.140Z,65.56
2023-03-14T15:57:51.865Z,67.84
2023-03-14T16:00:19.771Z,64.92
2023-03-14T16:02:46.414Z,64.79
2023-03-14T16:05:13.186Z,65.97
2023-03-14T16:07:39.951Z,67.23
2023-03-14T16:10:07.724Z,67.63
2023-03-14T16:12:34.592Z,68.15
2023-03-14T16:15:01.238Z,68.42
2023-03-14T16:17:27.883Z,66.69
2023-03-14T16:19:54.531Z,67.46
2023-03-14T16:22:21.263Z,66.68
2023-03-14T16:24:47.943Z,67.33
2023-03-14T16:27:14.591Z,66.71
2023-03-14T16:29:42.245Z,67.20
2023-03-14T16:32:09.315Z,67.54
2023-03-14T16:34:38.931Z,66.29
2023-03-14T16:37:05.674Z,66.05
2023-03-14T16:39:32.338Z,65.72
2023-03-14T16:41:59.356Z,63.30
2023-03-14T16:44:26.035Z,62.60
2023-03-14T16:46:52.678Z,60.72
2023-03-14T16:49:19.363Z,60.18
2023-03-14T16:51:46.008Z,60.06
2023-03-14T16:54:12.651Z,60.03
2023-03-14T16:56:39.440Z,61.31
2023-03-14T16:59:06.082Z,59.83
2023-03-14T17:01:32.800Z,59.87
2023-03-14T17:03:59.558Z,60.32
2023-03-14T17:06:27.562Z,61.02
2023-03-14T17:08:54.873Z,59.75
2023-03-14T17:11:21.620Z,60.40
2023-03-14T17:13:48.272Z,60.38
2023-03-14T17:16:15.008Z,62.01
2023-03-14T17:18:41.679Z,59.93
2023-03-14T17:21:08.325Z,59.52
2023-03-14T17:23:35.284Z,60.56
2023-03-14T17:26:01.983Z,59.49
2023-03-14T17:28:28.637Z,58.59
2023-03-14T17:31:02.565Z,57.69
2023-03-14T17:33:29.232Z,59.34
2023-03-14T17:35:55.882Z,59.02
2023-03-14T17:38:22.608Z,59.85
2023-03-14T17:40:49.626Z,59.68
2023-03-14T17:43:16.528Z,60.10
2023-03-14T17:45:43.210Z,59.13
2023-03-14T17:48:10.214Z,59.54
2023-03-14T17:50:37.082Z,59.40
2023-03-14T17:53:03.756Z,59.41
2023-03-14T17:55:30.400Z,60.03
2023-03-14T17:57:57.273Z,61.05
2023-03-14T18:00:24.170Z,61.60
2023-03-14T18:02:56.488Z,60.90
2023-03-14T18:05:24.942Z,60.10
2023-03-14T18:07:51.609Z,59.43
2023-03-14T18:10:18.266Z,60.44
2023-03-14T18:12:44.910Z,60.36
2023-03-14T18:15:11.700Z,59.38
2023-03-14T18:17:38.350Z,59.40
2023-03-14T18:20:05.351Z,60.01
2023-03-14T18:22:32.092Z,60.50
2023-03-14T18:24:58.751Z,60.05
2023-03-14T18:27:25.438Z,58.89
2023-03-14T18:29:52.204Z,57.95
2023-03-14T18:32:18.888Z,57.54
2023-03-14T18:34:45.671Z,58.32
2023-03-14T18:37:12.344Z,59.17
2023-03-14T18:39:39.034Z,58.48
2023-03-14T18:42:05.673Z,58.99
2023-03-14T18:44:32.333Z,58.92
2023-03-14T18:46:59.075Z,59.58
2023-03-14T18:49:26.202Z,58.88
2023-03-14T18:51:54.206Z,58.67
2023-03-14T18:54:20.833Z,58.12
2023-03-14T18:56:47.486Z,57.88
2023-03-14T18:59:14.159Z,57.74
2023-03-14T19:01:40.837Z,56.43
2023-03-14T19:04:09.508Z,57.14
2023-03-14T19:06:37.500Z,57.97
2023-03-14T19:09:04.159Z,58.37
2023-03-14T19:11:30.819Z,59.01
2023-03-14T19:13:57.483Z,58.24
2023-03-14T19:16:24.263Z,59.32
2023-03-14T19:18:51.001Z,60.04
2023-03-14T19:21:26.677Z,59.13
2023-03-14T19:23:53.330Z,56.59
2023-03-14T19:26:20.068Z,55.22
2023-03-14T19:28:46.690Z,55.46
2023-03-14T19:31:13.415Z,53.91
2023-03-14T19:33:40.163Z,54.64
2023-03-14T19:36:07.358Z,54.89
2023-03-14T19:38:34.076Z,53.48
2023-03-14T19:41:04.422Z,56.30
2023-03-14T19:43:31.050Z,55.40
2023-03-14T19:45:57.778Z,56.02
2023-03-14T19:48:24.463Z,55.28
2023-03-14T19:50:51.154Z,53.78
2023-03-14T19:53:17.989Z,55.32
2023-03-14T19:55:44.642Z,55.45
2023-03-14T19:58:11.322Z,55.08
2023-03-14T20:00:38.003Z,54.71
2023-03-14T20:03:04.698Z,53.92
2023-03-14T20:05:31.399Z,54.56
2023-03-14T20:07:58.049Z,55.30
2023-03-14T20:10:24.686Z,57.04
2023-03-14T20:12:51.451Z,55.71
2023-03-14T20:15:18.193Z,55.59
2023-03-14T20:17:46.175Z,54.66
2023-03-14T20:20:12.929Z,55.98
2023-03-14T20:22:39.643Z,56.08
2023-03-14T20:25:06.684Z,56.07
2023-03-14T20:27:33.779Z,56.92
2023-03-14T20:30:00.426Z,57.14
2023-03-14T20:32:27.140Z,56.77
2023-03-14T20:34:53.897Z,56.10
2023-03-14T20:37:21.153Z,57.04
2023-03-14T20:39:47.869Z,57.76
2023-03-14T20:42:14.716Z,56.60
2023-03-14T20:44:41.371Z,55.82
2023-03-14T20:47:08.020Z,59.65
2023-03-14T20:49:34.708Z,59.92
2023-03-14T20:52:01.397Z,55.71
2023-03-14T20:54:28.075Z,54.90
2023-03-14T20:56:54.784Z,54.28
2023-03-14T20:59:21.442Z,57.17
2023-03-14T21:01:48.228Z,56.87
2023-03-14T21:04:15.788Z,55.01
2023-03-14T21:06:45.459Z,57.70
2023-03-14T21:09:12.154Z,58.79
2023-03-14T21:11:39.015Z,60.01
2023-03-14T21:14:05.649Z,60.60
2023-03-14T21:16:32.384Z,60.86
2023-03-14T21:18:59.068Z,61.73
2023-03-14T21:21:25.739Z,61.54
2023-03-14T21:23:52.414Z,61.43
2023-03-14T21:26:19.074Z,62.45
2023-03-14T21:28:45.700Z,62.87
2023-03-14T21:31:12.595Z,63.69
2023-03-14T21:33:39.269Z,64.30
2023-03-14T21:36:06.357Z,64.13
2023-03-14T21:38:33.037Z,63.18
2023-03-14T21:40:59.684Z,65.63
2023-03-14T21:43:26.504Z,65.93
2023-03-14T21:45:53.143Z,66.19
2023-03-14T21:48:20.733Z,66.91
2023-03-14T21:50:47.502Z,65.33
2023-03-14T21:53:14.154Z,65.44
2023-03-14T21:55:44.537Z,65.50
2023-03-14T21:58:11.308Z,65.01
2023-03-14T22:00:37.953Z,65.56
2023-03-14T22:03:12.941Z,63.24
2023-03-14T22:05:43.978Z,63.14
2023-03-14T22:08:11.184Z,63.13
2023-03-14T22:10:46.022Z,64.00
2023-03-14T22:13:12.653Z,65.86
2023-03-14T22:15:39.300Z,65.71
2023-03-14T22:18:05.953Z,65.63
2023-03-14T22:20:32.576Z,65.67
2023-03-14T22:22:59.264Z,65.68
2023-03-14T22:25:25.894Z,64.44
2023-03-14T22:27:52.553Z,63.81
2023-03-14T22:30:19.217Z,64.21
2023-03-14T22:32:45.880Z,64.04
2023-03-14T22:35:12.537Z,62.23
2023-03-14T22:37:41.365Z,62.27
2023-03-14T22:40:08.706Z,63.53
2023-03-14T22:42:35.348Z,63.23
2023-03-14T22:45:02.089Z,63.17
2023-03-14T22:47:28.725Z,63.57
2023-03-14T22:49:55.377Z,64.20
2023-03-14T22:52:22.071Z,63.73
2023-03-14T22:54:48.735Z,63.47
2023-03-14T22:57:15.375Z,61.07
2023-03-14T22:59:42.068Z,60.43
2023-03-14T23:02:08.751Z,63.24
2023-03-14T23:04:35.382Z,64.51
2023-03-14T23:07:02.056Z,61.21
2023-03-14T23:09:28.703Z,61.63
2023-03-14T23:11:55.357Z,63.91
2023-03-14T23:14:22.022Z,65.41
2023-03-14T23:16:49.417Z,64.69
2023-03-14T23:19:16.064Z,65.04
2023-03-14T23:21:42.726Z,64.63
2023-03-14T23:24:09.415Z,64.36
2023-03-14T23:26:36.120Z,64.69
2023-03-14T23:29:02.944Z,63.17
2023-03-14T23:31:29.609Z,63.18
2023-03-14T23:33:56.253Z,62.88
2023-03-14T23:36:22.907Z,63.15
2023-03-14T23:38:49.581Z,62.43
2023-03-14T23:41:16.216Z,61.59
2023-03-14T23:43:45.942Z,61.81
2023-03-14T23:46:12.905Z,61.70
2023-03-14T23:48:39.713Z,61.83
2023-03-14T23:51:08.013Z,61.55
2023-03-14T23:53:34.636Z,60.74
2023-03-14T23:56:01.324Z,60.26
2023-03-14T23:58:27.972Z,59.99
